sensor_id;sensor_type;location;lat;lon;timestamp;pressure;altitude;pressure_sealevel;temperature;humidity
80733;BME280;70130;44.534;18.678;2023-07-20T00:01:06;98479.25;;;19.28;87.94
80733;BME280;70130;44.534;18.678;2023-07-20T00:03:31;98469.53;;;19.24;86.77
80733;BME280;70130;44.534;18.678;2023-07-20T00:05:57;98464.47;;;19.33;87.80
80733;BME280;70130;44.534;18.678;2023-07-20T00:08:22;98457.09;;;19.26;87.07
80733;BME280;70130;44.534;18.678;2023-07-20T00:10:48;98467.94;;;19.30;87.74
80733;BME280;70130;44.534;18.678;2023-07-20T00:13:13;98464.88;;;19.28;87.28
80733;BME280;70130;44.534;18.678;2023-07-20T00:15:41;98455.09;;;19.34;88.05
80733;BME280;70130;44.534;18.678;2023-07-20T00:18:07;98440.34;;;19.35;87.34
80733;BME280;70130;44.534;18.678;2023-07-20T00:20:32;98436.06;;;19.34;87.37
80733;BME280;70130;44.534;18.678;2023-07-20T00:22:58;98438.41;;;19.32;86.96
80733;BME280;70130;44.534;18.678;2023-07-20T00:25:24;98436.09;;;19.27;86.92
80733;BME280;70130;44.534;18.678;2023-07-20T00:27:50;98443.88;;;19.28;86.48
80733;BME280;70130;44.534;18.678;2023-07-20T00:30:16;98451.28;;;19.21;86.72
80733;BME280;70130;44.534;18.678;2023-07-20T00:32:43;98446.28;;;19.09;86.23
80733;BME280;70130;44.534;18.678;2023-07-20T00:35:09;98456.34;;;19.15;87.37
80733;BME280;70130;44.534;18.678;2023-07-20T00:37:35;98450.91;;;19.19;87.76
80733;BME280;70130;44.534;18.678;2023-07-20T00:40:00;98435.38;;;19.12;86.98
80733;BME280;70130;44.534;18.678;2023-07-20T00:42:26;98421.81;;;19.09;87.59
80733;BME280;70130;44.534;18.678;2023-07-20T00:44:51;98420.59;;;19.17;87.62
80733;BME280;70130;44.534;18.678;2023-07-20T00:47:17;98409.31;;;19.22;87.55
80733;BME280;70130;44.534;18.678;2023-07-20T00:49:43;98405.06;;;19.17;87.01
80733;BME280;70130;44.534;18.678;2023-07-20T00:52:10;98401.53;;;19.24;87.20
80733;BME280;70130;44.534;18.678;2023-07-20T00:54:38;98399.97;;;19.19;87.10
80733;BME280;70130;44.534;18.678;2023-07-20T00:57:04;98380.94;;;19.19;87.38
80733;BME280;70130;44.534;18.678;2023-07-20T00:59:31;98399.63;;;19.17;87.84
80733;BME280;70130;44.534;18.678;2023-07-20T01:01:57;98398.84;;;19.10;87.83
80733;BME280;70130;44.534;18.678;2023-07-20T01:04:22;98414.41;;;19.09;88.01
80733;BME280;70130;44.534;18.678;2023-07-20T01:07:01;98418.28;;;19.12;87.69
80733;BME280;70130;44.534;18.678;2023-07-20T01:09:59;98426.03;;;19.17;87.53
80733;BME280;70130;44.534;18.678;2023-07-20T01:12:51;98414.34;;;19.20;87.63
80733;BME280;70130;44.534;18.678;2023-07-20T01:15:16;98398.03;;;19.20;86.84
80733;BME280;70130;44.534;18.678;2023-07-20T01:17:41;98399.59;;;19.21;87.19
80733;BME280;70130;44.534;18.678;2023-07-20T01:20:08;98396.09;;;19.20;87.42
80733;BME280;70130;44.534;18.678;2023-07-20T01:23:06;98405.00;;;19.24;87.58
80733;BME280;70130;44.534;18.678;2023-07-20T01:29:11;98411.25;;;19.21;87.33
80733;BME280;70130;44.534;18.678;2023-07-20T01:31:34;98414.38;;;19.16;87.55
80733;BME280;70130;44.534;18.678;2023-07-20T01:34:02;98423.72;;;19.12;87.16
80733;BME280;70130;44.534;18.678;2023-07-20T01:36:33;98426.88;;;19.03;87.38
80733;BME280;70130;44.534;18.678;2023-07-20T01:38:59;98418.31;;;19.08;87.72
80733;BME280;70130;44.534;18.678;2023-07-20T01:41:25;98419.81;;;19.16;87.98
80733;BME280;70130;44.534;18.678;2023-07-20T01:43:51;98430.75;;;19.09;87.11
80733;BME280;70130;44.534;18.678;2023-07-20T01:46:17;98438.91;;;19.02;87.20
80733;BME280;70130;44.534;18.678;2023-07-20T01:48:42;98442.00;;;19.08;87.33
80733;BME280;70130;44.534;18.678;2023-07-20T01:51:08;98442.03;;;18.93;87.90
80733;BME280;70130;44.534;18.678;2023-07-20T01:53:34;98458.72;;;19.03;88.07
80733;BME280;70130;44.534;18.678;2023-07-20T01:55:59;98480.09;;;18.97;88.71
80733;BME280;70130;44.534;18.678;2023-07-20T01:58:25;98513.09;;;18.92;88.90
80733;BME280;70130;44.534;18.678;2023-07-20T02:00:51;98635.84;;;18.87;89.46
80733;BME280;70130;44.534;18.678;2023-07-20T02:03:17;98823.78;;;18.82;89.25
80733;BME280;70130;44.534;18.678;2023-07-20T02:05:42;98764.75;;;18.82;88.45
80733;BME280;70130;44.534;18.678;2023-07-20T02:08:09;98792.75;;;18.86;89.06
80733;BME280;70130;44.534;18.678;2023-07-20T02:10:35;98796.63;;;18.85;89.07
80733;BME280;70130;44.534;18.678;2023-07-20T02:13:01;98802.06;;;18.85;89.01
80733;BME280;70130;44.534;18.678;2023-07-20T02:15:26;98798.13;;;18.72;89.89
80733;BME280;70130;44.534;18.678;2023-07-20T02:17:53;98804.25;;;18.55;90.37
80733;BME280;70130;44.534;18.678;2023-07-20T02:20:18;98787.19;;;18.54;90.45
80733;BME280;70130;44.534;18.678;2023-07-20T02:22:44;98780.50;;;18.45;91.41
80733;BME280;70130;44.534;18.678;2023-07-20T02:25:10;98766.94;;;18.45;90.95
80733;BME280;70130;44.534;18.678;2023-07-20T02:27:37;98763.44;;;18.44;91.23
80733;BME280;70130;44.534;18.678;2023-07-20T02:30:03;98795.66;;;18.49;90.31
80733;BME280;70130;44.534;18.678;2023-07-20T02:32:30;98810.78;;;18.50;90.39
80733;BME280;70130;44.534;18.678;2023-07-20T02:34:56;98798.75;;;18.48;90.68
80733;BME280;70130;44.534;18.678;2023-07-20T02:37:22;98781.22;;;18.35;90.99
80733;BME280;70130;44.534;18.678;2023-07-20T02:39:47;98770.31;;;18.31;90.69
80733;BME280;70130;44.534;18.678;2023-07-20T02:42:13;98779.25;;;18.32;90.70
80733;BME280;70130;44.534;18.678;2023-07-20T02:44:40;98781.22;;;18.35;90.16
80733;BME280;70130;44.534;18.678;2023-07-20T02:47:06;98785.53;;;18.39;89.97
80733;BME280;70130;44.534;18.678;2023-07-20T02:49:32;98777.38;;;18.39;90.20
80733;BME280;70130;44.534;18.678;2023-07-20T02:51:58;98785.16;;;18.44;90.30
80733;BME280;70130;44.534;18.678;2023-07-20T02:54:24;98788.25;;;18.43;90.55
80733;BME280;70130;44.534;18.678;2023-07-20T02:56:49;98794.47;;;18.40;89.12
80733;BME280;70130;44.534;18.678;2023-07-20T02:59:15;98788.25;;;18.39;89.08
80733;BME280;70130;44.534;18.678;2023-07-20T03:01:41;98796.00;;;18.41;88.80
80733;BME280;70130;44.534;18.678;2023-07-20T03:04:08;98801.41;;;18.34;89.39
80733;BME280;70130;44.534;18.678;2023-07-20T03:06:36;98807.97;;;18.29;89.13
80733;BME280;70130;44.534;18.678;2023-07-20T03:09:02;98790.03;;;18.18;89.67
80733;BME280;70130;44.534;18.678;2023-07-20T03:11:29;98790.84;;;18.22;89.61
80733;BME280;70130;44.534;18.678;2023-07-20T03:13:56;98799.41;;;18.24;89.74
80733;BME280;70130;44.534;18.678;2023-07-20T03:16:23;98790.81;;;18.15;90.31
80733;BME280;70130;44.534;18.678;2023-07-20T03:18:51;98795.50;;;18.21;89.82
80733;BME280;70130;44.534;18.678;2023-07-20T03:21:17;98781.53;;;18.19;90.54
80733;BME280;70130;44.534;18.678;2023-07-20T03:23:42;98765.59;;;18.14;90.09
80733;BME280;70130;44.534;18.678;2023-07-20T03:26:09;98748.91;;;18.16;90.94
80733;BME280;70130;44.534;18.678;2023-07-20T03:28:36;98740.75;;;18.16;90.94
80733;BME280;70130;44.534;18.678;2023-07-20T03:31:01;98728.34;;;18.15;92.15
80733;BME280;70130;44.534;18.678;2023-07-20T03:33:30;98717.09;;;18.16;92.97
80733;BME280;70130;44.534;18.678;2023-07-20T03:35:58;98716.31;;;18.12;93.46
80733;BME280;70130;44.534;18.678;2023-07-20T03:38:24;98721.75;;;18.16;93.15
80733;BME280;70130;44.534;18.678;2023-07-20T03:40:55;98713.22;;;18.13;93.00
80733;BME280;70130;44.534;18.678;2023-07-20T03:43:22;98684.84;;;18.07;92.66
80733;BME280;70130;44.534;18.678;2023-07-20T03:45:48;98644.91;;;18.04;92.71
80733;BME280;70130;44.534;18.678;2023-07-20T03:48:22;98616.56;;;17.98;92.94
80733;BME280;70130;44.534;18.678;2023-07-20T03:50:50;98599.13;;;18.03;93.04
80733;BME280;70130;44.534;18.678;2023-07-20T03:53:16;98621.63;;;18.03;91.95
80733;BME280;70130;44.534;18.678;2023-07-20T03:55:46;98611.53;;;18.04;92.48
80733;BME280;70130;44.534;18.678;2023-07-20T03:58:13;98583.97;;;18.02;92.26
80733;BME280;70130;44.534;18.678;2023-07-20T04:00:39;98581.22;;;17.91;91.33
80733;BME280;70130;44.534;18.678;2023-07-20T04:03:06;98592.88;;;17.92;91.85
80733;BME280;70130;44.534;18.678;2023-07-20T04:05:31;98621.22;;;17.98;90.74
80733;BME280;70130;44.534;18.678;2023-07-20T04:07:58;98653.38;;;17.92;91.36
80733;BME280;70130;44.534;18.678;2023-07-20T04:10:24;98659.56;;;17.86;89.85
80733;BME280;70130;44.534;18.678;2023-07-20T04:12:51;98656.41;;;17.80;90.59
80733;BME280;70130;44.534;18.678;2023-07-20T04:15:17;98648.72;;;17.89;91.15
80733;BME280;70130;44.534;18.678;2023-07-20T04:17:42;98643.66;;;17.88;90.66
80733;BME280;70130;44.534;18.678;2023-07-20T04:20:08;98627.00;;;17.89;90.18
80733;BME280;70130;44.534;18.678;2023-07-20T04:22:34;98629.34;;;17.94;91.56
80733;BME280;70130;44.534;18.678;2023-07-20T04:25:01;98622.00;;;17.98;91.59
80733;BME280;70130;44.534;18.678;2023-07-20T04:27:26;98623.91;;;17.98;91.43
80733;BME280;70130;44.534;18.678;2023-07-20T04:29:52;98621.25;;;18.05;91.80
80733;BME280;70130;44.534;18.678;2023-07-20T04:32:18;98606.13;;;18.04;90.40
80733;BME280;70130;44.534;18.678;2023-07-20T04:34:44;98612.31;;;18.04;91.44
80733;BME280;70130;44.534;18.678;2023-07-20T04:37:09;98603.81;;;18.13;91.89
80733;BME280;70130;44.534;18.678;2023-07-20T04:39:35;98596.81;;;18.12;90.99
80733;BME280;70130;44.534;18.678;2023-07-20T04:42:05;98591.44;;;18.19;91.58
80733;BME280;70130;44.534;18.678;2023-07-20T04:44:31;98577.06;;;18.22;91.45
80733;BME280;70130;44.534;18.678;2023-07-20T04:46:57;98575.53;;;18.28;90.93
80733;BME280;70130;44.534;18.678;2023-07-20T04:49:22;98564.69;;;18.32;91.16
80733;BME280;70130;44.534;18.678;2023-07-20T04:51:48;98564.69;;;18.35;91.01
80733;BME280;70130;44.534;18.678;2023-07-20T04:54:15;98573.63;;;18.43;90.30
80733;BME280;70130;44.534;18.678;2023-07-20T04:56:41;98555.38;;;18.47;91.33
80733;BME280;70130;44.534;18.678;2023-07-20T04:59:09;98557.38;;;18.53;90.11
80733;BME280;70130;44.534;18.678;2023-07-20T05:01:35;98540.69;;;18.62;90.67
80733;BME280;70130;44.534;18.678;2023-07-20T05:04:01;98537.97;;;18.76;90.51
80733;BME280;70130;44.534;18.678;2023-07-20T05:06:27;98532.16;;;18.81;89.60
80733;BME280;70130;44.534;18.678;2023-07-20T05:08:53;98529.81;;;18.83;88.64
80733;BME280;70130;44.534;18.678;2023-07-20T05:11:18;98532.53;;;18.90;89.38
80733;BME280;70130;44.534;18.678;2023-07-20T05:13:45;98525.53;;;18.93;89.02
80733;BME280;70130;44.534;18.678;2023-07-20T05:16:11;98526.69;;;19.03;89.09
80733;BME280;70130;44.534;18.678;2023-07-20T05:18:36;98533.31;;;19.09;88.45
80733;BME280;70130;44.534;18.678;2023-07-20T05:21:03;98546.50;;;19.14;89.36
80733;BME280;70130;44.534;18.678;2023-07-20T05:23:28;98550.38;;;19.06;85.05
80733;BME280;70130;44.534;18.678;2023-07-20T05:25:58;98559.31;;;19.10;86.88
80733;BME280;70130;44.534;18.678;2023-07-20T05:28:24;98580.66;;;19.15;87.32
80733;BME280;70130;44.534;18.678;2023-07-20T05:30:51;98591.56;;;19.22;87.61
80733;BME280;70130;44.534;18.678;2023-07-20T05:33:20;98607.09;;;19.32;87.24
80733;BME280;70130;44.534;18.678;2023-07-20T05:35:46;98598.56;;;19.23;84.64
80733;BME280;70130;44.534;18.678;2023-07-20T05:38:12;98604.75;;;19.30;86.43
80733;BME280;70130;44.534;18.678;2023-07-20T05:40:39;98610.56;;;19.36;84.85
80733;BME280;70130;44.534;18.678;2023-07-20T05:43:05;98617.56;;;19.44;85.18
80733;BME280;70130;44.534;18.678;2023-07-20T05:45:31;98610.56;;;19.43;86.12
80733;BME280;70130;44.534;18.678;2023-07-20T05:47:56;98605.91;;;19.51;85.47
80733;BME280;70130;44.534;18.678;2023-07-20T05:50:22;98605.50;;;19.56;80.99
80733;BME280;70130;44.534;18.678;2023-07-20T05:52:48;98607.81;;;19.64;83.70
80733;BME280;70130;44.534;18.678;2023-07-20T05:55:13;98608.63;;;19.61;81.43
80733;BME280;70130;44.534;18.678;2023-07-20T05:57:39;98610.50;;;19.75;83.25
80733;BME280;70130;44.534;18.678;2023-07-20T06:00:09;98617.84;;;19.96;84.55
80733;BME280;70130;44.534;18.678;2023-07-20T06:02:38;98627.88;;;20.13;83.51
80733;BME280;70130;44.534;18.678;2023-07-20T06:05:05;98630.97;;;20.22;81.98
80733;BME280;70130;44.534;18.678;2023-07-20T06:07:32;98634.53;;;20.12;83.29
80733;BME280;70130;44.534;18.678;2023-07-20T06:09:58;98634.47;;;20.26;81.38
80733;BME280;70130;44.534;18.678;2023-07-20T06:12:24;98631.72;;;20.26;81.12
80733;BME280;70130;44.534;18.678;2023-07-20T06:14:50;98623.16;;;20.24;82.06
80733;BME280;70130;44.534;18.678;2023-07-20T06:17:15;98625.94;;;20.17;80.46
80733;BME280;70130;44.534;18.678;2023-07-20T06:19:41;98627.44;;;20.25;82.82
80733;BME280;70130;44.534;18.678;2023-07-20T06:22:06;98629.75;;;20.34;81.30
80733;BME280;70130;44.534;18.678;2023-07-20T06:24:32;98625.09;;;20.34;81.43
80733;BME280;70130;44.534;18.678;2023-07-20T06:26:57;98624.31;;;20.30;81.25
80733;BME280;70130;44.534;18.678;2023-07-20T06:29:23;98621.97;;;20.36;79.34
80733;BME280;70130;44.534;18.678;2023-07-20T06:31:48;98622.00;;;20.32;80.36
80733;BME280;70130;44.534;18.678;2023-07-20T06:34:14;98638.31;;;20.39;80.21
80733;BME280;70130;44.534;18.678;2023-07-20T06:36:39;98625.09;;;20.34;80.73
80733;BME280;70130;44.534;18.678;2023-07-20T06:39:05;98634.81;;;20.42;80.36
80733;BME280;70130;44.534;18.678;2023-07-20T06:41:31;98628.13;;;20.50;80.12
80733;BME280;70130;44.534;18.678;2023-07-20T06:43:56;98634.78;;;20.46;79.49
80733;BME280;70130;44.534;18.678;2023-07-20T06:46:26;98636.66;;;20.52;80.56
80733;BME280;70130;44.534;18.678;2023-07-20T06:48:52;98633.09;;;20.62;78.89
80733;BME280;70130;44.534;18.678;2023-07-20T06:51:17;98632.25;;;20.73;78.46
80733;BME280;70130;44.534;18.678;2023-07-20T06:53:43;98636.16;;;20.75;76.77
80733;BME280;70130;44.534;18.678;2023-07-20T06:56:09;98635.75;;;20.73;78.20
80733;BME280;70130;44.534;18.678;2023-07-20T06:58:35;98633.88;;;20.66;77.50
80733;BME280;70130;44.534;18.678;2023-07-20T07:01:07;98638.59;;;20.59;77.92
80733;BME280;70130;44.534;18.678;2023-07-20T07:03:33;98636.31;;;20.50;78.52
80733;BME280;70130;44.534;18.678;2023-07-20T07:05:59;98635.53;;;20.50;79.67
80733;BME280;70130;44.534;18.678;2023-07-20T07:08:25;98630.81;;;20.54;78.89
80733;BME280;70130;44.534;18.678;2023-07-20T07:10:52;98632.34;;;20.58;78.12
80733;BME280;70130;44.534;18.678;2023-07-20T07:13:17;98631.53;;;20.65;76.26
80733;BME280;70130;44.534;18.678;2023-07-20T07:15:43;98625.28;;;20.72;77.55
80733;BME280;70130;44.534;18.678;2023-07-20T07:18:09;98634.66;;;20.63;79.24
80733;BME280;70130;44.534;18.678;2023-07-20T07:20:34;98632.34;;;20.62;77.77
80733;BME280;70130;44.534;18.678;2023-07-20T07:23:00;98631.56;;;20.61;80.80
80733;BME280;70130;44.534;18.678;2023-07-20T07:25:26;98637.72;;;20.73;78.85
80733;BME280;70130;44.534;18.678;2023-07-20T07:27:53;98636.16;;;20.75;78.89
80733;BME280;70130;44.534;18.678;2023-07-20T07:30:18;98630.31;;;20.77;78.76
80733;BME280;70130;44.534;18.678;2023-07-20T07:32:44;98623.63;;;20.85;77.73
80733;BME280;70130;44.534;18.678;2023-07-20T07:35:10;98624.28;;;20.99;79.43
80733;BME280;70130;44.534;18.678;2023-07-20T07:37:35;98619.28;;;20.91;77.79
80733;BME280;70130;44.534;18.678;2023-07-20T07:40:02;98609.75;;;21.17;76.58
80733;BME280;70130;44.534;18.678;2023-07-20T07:42:29;98620.13;;;21.32;76.44
80733;BME280;70130;44.534;18.678;2023-07-20T07:44:54;98613.59;;;21.26;77.08
80733;BME280;70130;44.534;18.678;2023-07-20T07:47:20;98621.63;;;21.40;77.37
80733;BME280;70130;44.534;18.678;2023-07-20T07:49:46;98619.47;;;21.62;74.55
80733;BME280;70130;44.534;18.678;2023-07-20T07:52:11;98623.69;;;21.67;76.79
80733;BME280;70130;44.534;18.678;2023-07-20T07:54:37;98616.72;;;21.66;74.36
80733;BME280;70130;44.534;18.678;2023-07-20T07:57:03;98620.50;;;21.75;75.78
80733;BME280;70130;44.534;18.678;2023-07-20T07:59:28;98622.41;;;21.78;74.13
80733;BME280;70130;44.534;18.678;2023-07-20T08:01:56;98626.56;;;21.93;73.65
80733;BME280;70130;44.534;18.678;2023-07-20T08:04:23;98626.97;;;21.88;72.93
80733;BME280;70130;44.534;18.678;2023-07-20T08:06:49;98645.38;;;21.84;72.93
80733;BME280;70130;44.534;18.678;2023-07-20T08:09:15;98636.31;;;21.94;70.70
80733;BME280;70130;44.534;18.678;2023-07-20T08:11:40;98635.13;;;21.92;73.41
80733;BME280;70130;44.534;18.678;2023-07-20T08:14:06;98631.22;;;21.93;72.35
80733;BME280;70130;44.534;18.678;2023-07-20T08:16:32;98623.06;;;21.89;70.50
80733;BME280;70130;44.534;18.678;2023-07-20T08:18:57;98631.13;;;22.04;70.34
80733;BME280;70130;44.534;18.678;2023-07-20T08:21:23;98623.97;;;22.13;72.53
80733;BME280;70130;44.534;18.678;2023-07-20T08:23:48;98624.03;;;22.10;70.37
80733;BME280;70130;44.534;18.678;2023-07-20T08:26:14;98614.34;;;22.02;72.58
80733;BME280;70130;44.534;18.678;2023-07-20T08:28:39;98617.22;;;22.25;70.92
80733;BME280;70130;44.534;18.678;2023-07-20T08:31:05;98624.31;;;22.46;71.12
80733;BME280;70130;44.534;18.678;2023-07-20T08:33:31;98627.44;;;22.48;72.38
80733;BME280;70130;44.534;18.678;2023-07-20T08:35:58;98629.25;;;22.58;71.27
80733;BME280;70130;44.534;18.678;2023-07-20T08:38:24;98624.13;;;22.60;69.59
80733;BME280;70130;44.534;18.678;2023-07-20T08:40:51;98628.16;;;22.52;69.98
80733;BME280;70130;44.534;18.678;2023-07-20T08:43:19;98619.31;;;22.40;70.42
80733;BME280;70130;44.534;18.678;2023-07-20T08:45:45;98627.53;;;22.40;68.58
80733;BME280;70130;44.534;18.678;2023-07-20T08:48:12;98634.03;;;22.80;68.60
80733;BME280;70130;44.534;18.678;2023-07-20T08:50:38;98632.44;;;22.83;69.34
80733;BME280;70130;44.534;18.678;2023-07-20T08:53:04;98629.88;;;22.69;67.82
80733;BME280;70130;44.534;18.678;2023-07-20T08:55:31;98632.53;;;22.76;67.97
80733;BME280;70130;44.534;18.678;2023-07-20T08:58:00;98626.56;;;23.08;66.50
80733;BME280;70130;44.534;18.678;2023-07-20T09:00:26;98627.38;;;22.81;68.72
80733;BME280;70130;44.534;18.678;2023-07-20T09:02:54;98625.94;;;22.70;66.86
80733;BME280;70130;44.534;18.678;2023-07-20T09:05:21;98634.00;;;22.84;67.26
80733;BME280;70130;44.534;18.678;2023-07-20T09:07:48;98638.63;;;22.87;67.08
80733;BME280;70130;44.534;18.678;2023-07-20T09:10:13;98633.00;;;22.71;69.70
80733;BME280;70130;44.534;18.678;2023-07-20T09:12:41;98630.16;;;22.78;67.67
80733;BME280;70130;44.534;18.678;2023-07-20T09:15:07;98634.69;;;22.88;67.37
80733;BME280;70130;44.534;18.678;2023-07-20T09:17:33;98631.81;;;23.22;62.99
80733;BME280;70130;44.534;18.678;2023-07-20T09:20:04;98628.66;;;23.23;65.56
80733;BME280;70130;44.534;18.678;2023-07-20T09:22:39;98636.88;;;23.23;66.79
80733;BME280;70130;44.534;18.678;2023-07-20T09:25:17;98640.63;;;23.56;62.38
80733;BME280;70130;44.534;18.678;2023-07-20T09:27:44;98638.59;;;23.60;63.73
80733;BME280;70130;44.534;18.678;2023-07-20T09:30:11;98636.03;;;23.50;62.50
80733;BME280;70130;44.534;18.678;2023-07-20T09:32:48;98644.88;;;23.34;64.22
80733;BME280;70130;44.534;18.678;2023-07-20T09:35:20;98634.59;;;23.42;63.83
80733;BME280;70130;44.534;18.678;2023-07-20T09:37:51;98631.03;;;23.45;62.38
80733;BME280;70130;44.534;18.678;2023-07-20T09:40:18;98623.53;;;23.49;61.06
80733;BME280;70130;44.534;18.678;2023-07-20T09:42:44;98623.13;;;23.50;61.71
80733;BME280;70130;44.534;18.678;2023-07-20T09:45:11;98609.59;;;23.63;61.18
80733;BME280;70130;44.534;18.678;2023-07-20T09:47:37;98613.88;;;23.84;60.97
80733;BME280;70130;44.534;18.678;2023-07-20T09:50:04;98613.34;;;23.92;61.24
80733;BME280;70130;44.534;18.678;2023-07-20T09:52:30;98620.06;;;24.47;58.59
80733;BME280;70130;44.534;18.678;2023-07-20T09:54:57;98614.72;;;24.40;59.64
80733;BME280;70130;44.534;18.678;2023-07-20T09:57:23;98603.91;;;24.33;61.41
80733;BME280;70130;44.534;18.678;2023-07-20T09:59:48;98611.78;;;24.31;61.28
80733;BME280;70130;44.534;18.678;2023-07-20T10:02:28;98611.22;;;24.20;60.00
80733;BME280;70130;44.534;18.678;2023-07-20T10:04:57;98610.84;;;24.37;58.19
80733;BME280;70130;44.534;18.678;2023-07-20T10:07:27;98606.53;;;24.56;58.29
80733;BME280;70130;44.534;18.678;2023-07-20T10:09:56;98605.31;;;24.57;60.62
80733;BME280;70130;44.534;18.678;2023-07-20T10:12:25;98606.94;;;24.90;57.91
80733;BME280;70130;44.534;18.678;2023-07-20T10:18:25;98620.59;;;24.74;60.11
80733;BME280;70130;44.534;18.678;2023-07-20T10:20:35;98607.41;;;25.34;55.96
80733;BME280;70130;44.534;18.678;2023-07-20T10:23:02;98612.34;;;25.10;59.52
80733;BME280;70130;44.534;18.678;2023-07-20T10:25:28;98622.81;;;25.15;56.32
80733;BME280;70130;44.534;18.678;2023-07-20T10:27:55;98621.31;;;25.27;57.35
80733;BME280;70130;44.534;18.678;2023-07-20T10:30:23;98614.63;;;25.28;57.71
80733;BME280;70130;44.534;18.678;2023-07-20T10:32:50;98619.03;;;25.25;58.72
80733;BME280;70130;44.534;18.678;2023-07-20T10:35:17;98608.81;;;25.26;57.21
80733;BME280;70130;44.534;18.678;2023-07-20T10:40:27;98615.28;;;25.48;56.79
80733;BME280;70130;44.534;18.678;2023-07-20T10:43:11;98609.78;;;25.48;55.17
80733;BME280;70130;44.534;18.678;2023-07-20T10:45:45;98612.03;;;25.82;55.75
80733;BME280;70130;44.534;18.678;2023-07-20T10:48:22;98603.91;;;25.78;55.33
80733;BME280;70130;44.534;18.678;2023-07-20T10:53:36;98588.50;;;25.81;54.11
80733;BME280;70130;44.534;18.678;2023-07-20T10:56:15;98591.19;;;25.97;56.07
80733;BME280;70130;44.534;18.678;2023-07-20T10:58:44;98589.69;;;26.09;54.35
80733;BME280;70130;44.534;18.678;2023-07-20T11:01:14;98589.22;;;26.10;53.08
80733;BME280;70130;44.534;18.678;2023-07-20T11:03:40;98590.63;;;26.31;56.05
80733;BME280;70130;44.534;18.678;2023-07-20T11:09:11;98583.59;;;26.55;55.63
80733;BME280;70130;44.534;18.678;2023-07-20T11:11:41;98579.72;;;26.65;53.27
80733;BME280;70130;44.534;18.678;2023-07-20T11:14:26;98573.78;;;26.80;53.67
80733;BME280;70130;44.534;18.678;2023-07-20T11:16:52;98574.00;;;26.98;55.12
80733;BME280;70130;44.534;18.678;2023-07-20T11:19:25;98578.19;;;27.02;51.07
80733;BME280;70130;44.534;18.678;2023-07-20T11:21:56;98567.81;;;26.94;53.25
80733;BME280;70130;44.534;18.678;2023-07-20T11:24:23;98563.72;;;27.11;51.26
80733;BME280;70130;44.534;18.678;2023-07-20T11:26:50;98568.25;;;27.05;54.16
80733;BME280;70130;44.534;18.678;2023-07-20T11:29:18;98569.63;;;26.25;57.22
80733;BME280;70130;44.534;18.678;2023-07-20T11:31:45;98562.69;;;25.91;58.32
80733;BME280;70130;44.534;18.678;2023-07-20T11:36:43;98567.34;;;26.07;57.04
80733;BME280;70130;44.534;18.678;2023-07-20T11:39:10;98566.09;;;25.83;58.73
80733;BME280;70130;44.534;18.678;2023-07-20T11:41:36;98560.25;;;25.80;59.18
80733;BME280;70130;44.534;18.678;2023-07-20T11:44:02;98556.22;;;25.98;56.33
80733;BME280;70130;44.534;18.678;2023-07-20T11:46:28;98571.22;;;26.09;55.05
80733;BME280;70130;44.534;18.678;2023-07-20T11:48:58;98560.50;;;26.53;54.37
80733;BME280;70130;44.534;18.678;2023-07-20T11:51:29;98559.91;;;26.71;54.58
80733;BME280;70130;44.534;18.678;2023-07-20T11:53:56;98555.50;;;26.98;50.82
80733;BME280;70130;44.534;18.678;2023-07-20T11:56:23;98568.25;;;26.80;50.48
80733;BME280;70130;44.534;18.678;2023-07-20T11:58:49;98554.19;;;26.65;52.96
80733;BME280;70130;44.534;18.678;2023-07-20T12:01:16;98552.44;;;26.58;49.74
80733;BME280;70130;44.534;18.678;2023-07-20T12:03:43;98552.09;;;26.82;51.26
80733;BME280;70130;44.534;18.678;2023-07-20T12:06:10;98537.94;;;27.18;51.93
80733;BME280;70130;44.534;18.678;2023-07-20T12:08:39;98553.28;;;27.40;50.51
80733;BME280;70130;44.534;18.678;2023-07-20T12:11:06;98552.69;;;27.45;50.68
80733;BME280;70130;44.534;18.678;2023-07-20T12:13:39;98550.44;;;27.66;49.97
80733;BME280;70130;44.534;18.678;2023-07-20T12:16:15;98543.06;;;27.63;50.02
80733;BME280;70130;44.534;18.678;2023-07-20T12:18:43;98538.56;;;27.78;48.38
80733;BME280;70130;44.534;18.678;2023-07-20T12:21:09;98538.16;;;27.88;49.03
80733;BME280;70130;44.534;18.678;2023-07-20T12:23:40;98531.47;;;27.99;48.19
80733;BME280;70130;44.534;18.678;2023-07-20T12:26:06;98549.31;;;28.07;47.14
80733;BME280;70130;44.534;18.678;2023-07-20T12:28:32;98532.94;;;28.12;47.71
80733;BME280;70130;44.534;18.678;2023-07-20T12:30:58;98535.47;;;28.28;47.13
80733;BME280;70130;44.534;18.678;2023-07-20T12:33:23;98533.72;;;28.13;44.92
80733;BME280;70130;44.534;18.678;2023-07-20T12:35:49;98534.13;;;28.02;46.90
80733;BME280;70130;44.534;18.678;2023-07-20T12:38:15;98526.78;;;28.08;48.10
80733;BME280;70130;44.534;18.678;2023-07-20T12:40:42;98524.75;;;28.00;47.09
80733;BME280;70130;44.534;18.678;2023-07-20T12:43:08;98523.19;;;28.20;46.87
80733;BME280;70130;44.534;18.678;2023-07-20T12:45:34;98528.09;;;28.16;47.05
80733;BME280;70130;44.534;18.678;2023-07-20T12:47:59;98522.16;;;28.05;44.70
80733;BME280;70130;44.534;18.678;2023-07-20T12:50:25;98521.06;;;28.24;46.93
80733;BME280;70130;44.534;18.678;2023-07-20T12:52:50;98517.28;;;28.40;46.67
80733;BME280;70130;44.534;18.678;2023-07-20T12:55:16;98506.59;;;28.51;45.41
80733;BME280;70130;44.534;18.678;2023-07-20T12:57:41;98502.94;;;28.63;44.90
80733;BME280;70130;44.534;18.678;2023-07-20T13:00:09;98508.66;;;28.78;46.25
80733;BME280;70130;44.534;18.678;2023-07-20T13:02:35;98507.78;;;28.99;45.51
80733;BME280;70130;44.534;18.678;2023-07-20T13:05:02;98504.25;;;29.08;43.52
80733;BME280;70130;44.534;18.678;2023-07-20T13:07:35;98491.50;;;28.92;44.67